Time;durP1;ratioP1;P1;durP2;ratioP2;P2;SDS_P1;SDS_P2;PMS_P1;PMS_P2;Temp;Humidity;BMP_temperature;BMP_pressure;BME280_temperature;BME280_humidity;BME280_pressure;Samples;Min_cycle;Max_cycle;Signal;HPM_P1;HPM_P2
2024/02/27 00:00:04;;;;;;;10.80;4.85;;;;;;;;;;10529485;28;20147;-75
2024/02/27 00:05:08;;;;;;;9.73;4.90;;;;;;;;;;10540905;27;20040;-74
2024/02/27 00:10:11;;;;;;;;;;;;;;;;;;10558367;28;20996;-74
2024/02/27 00:15:21;;;;;;;12.52;5.35;;;;;;;;;;10555302;28;20003;-74
2024/02/27 00:20:27;;;;;;;14.60;5.65;;;;;;;;;;10558800;27;20055;-74
2024/02/27 00:25:31;;;;;;;12.27;5.10;;;;;;;;;;10543117;27;20062;-76
2024/02/27 00:30:38;;;;;;;12.15;4.47;;;;;;;;;;10547882;27;20052;-74
2024/02/27 00:35:45;;;;;;;13.55;5.20;;;;;;;;;;10555722;27;20555;-74
2024/02/27 00:40:51;;;;;;;12.38;5.25;;;;;;;;;;10549849;27;20404;-74
2024/02/27 00:46:05;;;;;;;10.73;4.88;;;;;;;;;;10550477;27;20580;-74
2024/02/27 00:51:12;;;;;;;14.32;6.15;;;;;;;;;;10538150;27;20040;-73
2024/02/27 00:56:19;;;;;;;11.45;5.22;;;;;;;;;;10555091;27;20032;-74
2024/02/27 01:01:31;;;;;;;6.60;3.28;;;;;;;;;;10553877;27;20032;-74
2024/02/27 01:06:40;;;;;;;10.60;4.82;;;;;;;;;;10542607;28;20129;-74
2024/02/27 01:11:47;;;;;;;11.27;4.25;;;;;;;;;;10533757;28;20075;-75
2024/02/27 01:16:55;;;;;;;9.82;4.07;;;;;;;;;;10541326;27;20047;-74
2024/02/27 01:22:01;;;;;;;12.15;4.78;;;;;;;;;;10548389;28;20067;-73
2024/02/27 01:27:06;;;;;;;14.60;5.07;;;;;;;;;;10532626;27;20036;-75
2024/02/27 01:32:15;;;;;;;12.25;5.60;;;;;;;;;;10546960;27;20048;-74
2024/02/27 01:37:18;;;;;;;15.82;5.80;;;;;;;;;;10530961;27;20043;-74
2024/02/27 01:42:27;;;;;;;12.23;5.38;;;;;;;;;;10522055;27;20049;-74
2024/02/27 01:47:33;;;;;;;13.32;6.05;;;;;;;;;;10548582;27;20048;-74
2024/02/27 01:52:37;;;;;;;12.93;5.85;;;;;;;;;;10550136;27;20055;-74
2024/02/27 01:57:44;;;;;;;12.73;5.40;;;;;;;;;;10546961;27;20047;-75
2024/02/27 02:02:54;;;;;;;19.45;6.25;;;;;;;;;;10545253;28;20555;-74
2024/02/27 02:08:06;;;;;;;13.10;5.80;;;;;;;;;;10549651;28;20059;-74
2024/02/27 02:13:13;;;;;;;14.63;5.53;;;;;;;;;;10541027;27;20428;-74
2024/02/27 02:18:18;;;;;;;16.60;6.70;;;;;;;;;;10542650;28;20500;-74
2024/02/27 02:23:46;;;;;;;13.70;5.32;;;;;;;;;;10545090;27;20514;-74
2024/02/27 02:28:53;;;;;;;16.63;6.65;;;;;;;;;;10519423;28;20047;-74
2024/02/27 02:34:02;;;;;;;15.30;6.35;;;;;;;;;;10544151;27;20036;-74
2024/02/27 02:39:33;;;;;;;;;;;;;;;;;;10525156;28;20055;-74
2024/02/27 02:44:46;;;;;;;14.43;5.75;;;;;;;;;;10545639;27;19943;-74
2024/02/27 02:49:59;;;;;;;16.48;6.13;;;;;;;;;;10528286;28;20060;-74
2024/02/27 02:55:12;;;;;;;14.10;5.50;;;;;;;;;;10545883;27;20395;-74
2024/02/27 03:00:20;;;;;;;9.52;4.28;;;;;;;;;;10546431;28;20044;-74
2024/02/27 03:05:30;;;;;;;8.63;4.57;;;;;;;;;;10527080;28;20480;-75
2024/02/27 03:10:37;;;;;;;12.07;5.10;;;;;;;;;;10542619;28;20067;-74
2024/02/27 03:15:52;;;;;;;12.02;5.22;;;;;;;;;;10526502;28;20050;-75
2024/02/27 03:20:55;;;;;;;12.68;5.05;;;;;;;;;;10537051;28;20048;-74
2024/02/27 03:25:59;;;;;;;14.40;5.32;;;;;;;;;;10521708;28;20418;-74
2024/02/27 03:31:16;;;;;;;14.10;6.13;;;;;;;;;;10537646;28;20063;-74
2024/02/27 03:41:43;;;;;;;14.10;5.70;;;;;;;;;;10550986;27;20035;-74
2024/02/27 03:46:50;;;;;;;14.90;5.93;;;;;;;;;;10532881;28;20048;-74
2024/02/27 03:51:58;;;;;;;18.70;7.10;;;;;;;;;;10561899;28;20112;-74
2024/02/27 03:57:03;;;;;;;16.00;6.47;;;;;;;;;;10552451;27;20142;-75
2024/02/27 04:02:12;;;;;;;12.83;6.20;;;;;;;;;;10523551;27;20198;-74
2024/02/27 04:07:21;;;;;;;17.23;7.07;;;;;;;;;;10546223;28;20338;-74
2024/02/27 04:12:42;;;;;;;18.00;7.45;;;;;;;;;;10543988;27;20437;-74
2024/02/27 04:17:53;;;;;;;17.15;6.55;;;;;;;;;;10526873;28;20121;-74
2024/02/27 04:22:59;;;;;;;16.88;7.28;;;;;;;;;;10538323;27;20158;-74
2024/02/27 04:28:05;;;;;;;15.35;6.95;;;;;;;;;;10553226;28;20039;-74
2024/02/27 04:33:20;;;;;;;15.85;7.05;;;;;;;;;;10533404;27;20401;-74
2024/02/27 04:38:27;;;;;;;18.67;7.55;;;;;;;;;;10541854;27;22331;-74
2024/02/27 04:43:45;;;;;;;18.13;7.05;;;;;;;;;;10527410;28;20477;-74
2024/02/27 04:48:52;;;;;;;15.55;7.25;;;;;;;;;;10542188;27;20397;-74
2024/02/27 04:53:56;;;;;;;16.33;6.97;;;;;;;;;;10564196;27;20119;-74
2024/02/27 04:59:02;;;;;;;14.05;6.43;;;;;;;;;;10546105;27;20036;-75
2024/02/27 05:04:12;;;;;;;20.05;7.65;;;;;;;;;;10547802;28;20052;-74
2024/02/27 05:09:20;;;;;;;18.25;6.90;;;;;;;;;;10525635;27;20044;-74
2024/02/27 05:14:33;;;;;;;21.20;7.18;;;;;;;;;;10543711;28;20135;-75
2024/02/27 05:19:39;;;;;;;18.85;7.13;;;;;;;;;;10552097;27;20048;-73
2024/02/27 05:24:47;;;;;;;17.08;7.38;;;;;;;;;;10546084;27;20446;-74
2024/02/27 05:29:57;;;;;;;19.02;7.97;;;;;;;;;;10539807;27;20125;-75
2024/02/27 05:35:13;;;;;;;19.77;7.40;;;;;;;;;;10522675;28;20040;-75
2024/02/27 05:40:23;;;;;;;17.80;7.50;;;;;;;;;;10537175;27;20051;-74
2024/02/27 05:45:35;;;;;;;17.75;7.20;;;;;;;;;;10531684;28;20028;-74
2024/02/27 05:56:14;;;;;;;18.98;6.97;;;;;;;;;;10456237;27;20450;-74
2024/02/27 06:01:17;;;;;;;22.60;8.05;;;;;;;;;;10457447;28;20127;-73
2024/02/27 06:06:20;;;;;;;18.00;6.65;;;;;;;;;;10463286;28;20041;-74
2024/02/27 06:11:24;;;;;;;22.98;8.63;;;;;;;;;;10457625;28;20125;-74
2024/02/27 06:16:27;;;;;;;24.05;9.27;;;;;;;;;;10455494;28;20187;-74
2024/02/27 06:26:52;;;;;;;26.08;9.63;;;;;;;;;;10458616;28;20128;-75
2024/02/27 06:31:54;;;;;;;22.90;9.25;;;;;;;;;;10454495;28;20041;-76
2024/02/27 06:36:58;;;;;;;22.77;8.93;;;;;;;;;;10454351;28;20613;-75
2024/02/27 06:42:02;;;;;;;23.38;9.55;;;;;;;;;;10458027;28;20195;-75
2024/02/27 06:47:06;;;;;;;24.83;9.57;;;;;;;;;;10458464;28;20477;-75
2024/02/27 06:52:09;;;;;;;;;;;;;;;;;;10462015;28;20510;-76
2024/02/27 06:57:13;;;;;;;22.48;8.65;;;;;;;;;;10458620;28;19920;-75
2024/02/27 07:02:16;;;;;;;;;;;;;;;;;;10455476;28;20748;-75
2024/02/27 07:07:19;;;;;;;26.55;10.07;;;;;;;;;;10427655;28;20019;-75
2024/02/27 07:12:23;;;;;;;23.17;8.80;;;;;;;;;;10422382;28;20039;-76
2024/02/27 07:17:27;;;;;;;24.02;9.30;;;;;;;;;;10425229;28;20056;-74
2024/02/27 07:22:31;;;;;;;27.45;9.25;;;;;;;;;;10433700;28;20071;-74
2024/02/27 07:27:35;;;;;;;23.73;8.83;;;;;;;;;;10444264;28;20040;-73
2024/02/27 07:32:37;;;;;;;;;;;;;;;;;;10428266;28;20056;-74
2024/02/27 07:37:41;;;;;;;25.52;10.30;;;;;;;;;;10426878;28;20093;-74
2024/02/27 07:42:45;;;;;;;26.98;10.35;;;;;;;;;;10434756;28;20045;-74
2024/02/27 07:47:48;;;;;;;24.38;9.57;;;;;;;;;;10430359;28;20049;-74
2024/02/27 07:52:51;;;;;;;25.93;9.63;;;;;;;;;;10430772;28;20053;-74
2024/02/27 07:57:56;;;;;;;24.98;9.70;;;;;;;;;;10430222;28;20113;-74
2024/02/27 08:02:59;;;;;;;22.92;8.18;;;;;;;;;;10429840;28;20055;-74
2024/02/27 08:08:03;;;;;;;27.58;10.15;;;;;;;;;;10434971;28;20482;-75
2024/02/27 08:13:06;;;;;;;;;;;;;;;;;;10428345;28;20052;-75
2024/02/27 08:18:10;;;;;;;24.17;9.90;;;;;;;;;;10426572;28;19970;-74
2024/02/27 08:23:14;;;;;;;25.40;9.23;;;;;;;;;;10428890;28;20045;-75
2024/02/27 08:28:16;;;;;;;26.70;9.88;;;;;;;;;;10424713;28;20128;-74
2024/02/27 08:33:21;;;;;;;21.20;8.15;;;;;;;;;;10421206;28;20058;-74
2024/02/27 08:38:24;;;;;;;27.85;10.32;;;;;;;;;;10430668;28;20047;-75
2024/02/27 08:43:27;;;;;;;24.67;10.63;;;;;;;;;;10427385;28;20048;-75
2024/02/27 08:48:33;;;;;;;25.55;10.18;;;;;;;;;;10423470;28;20082;-75
2024/02/27 08:53:36;;;;;;;25.92;9.93;;;;;;;;;;10427694;28;20573;-74
2024/02/27 08:58:39;;;;;;;25.20;9.35;;;;;;;;;;10430262;28;20040;-74
2024/02/27 09:03:44;;;;;;;24.70;9.93;;;;;;;;;;10423741;28;20037;-74
2024/02/27 09:08:46;;;;;;;22.88;8.63;;;;;;;;;;10429153;28;20408;-74
2024/02/27 09:13:49;;;;;;;22.88;8.60;;;;;;;;;;10422188;28;20601;-75
2024/02/27 09:18:53;;;;;;;23.02;8.88;;;;;;;;;;10429409;28;20102;-74
2024/02/27 09:23:56;;;;;;;22.33;9.52;;;;;;;;;;10427773;28;20045;-74
2024/02/27 09:28:59;;;;;;;24.77;9.20;;;;;;;;;;10420070;28;20115;-74
2024/02/27 09:34:04;;;;;;;23.02;9.48;;;;;;;;;;10431391;28;20500;-75
2024/02/27 09:39:07;;;;;;;26.70;9.02;;;;;;;;;;10427688;28;20467;-74
2024/02/27 09:44:10;;;;;;;22.70;9.83;;;;;;;;;;10423284;28;20471;-75
2024/02/27 09:49:15;;;;;;;25.55;9.95;;;;;;;;;;10428052;28;20124;-75
2024/02/27 09:54:38;;;;;;;21.35;6.65;;;;;;;;;;10422868;28;20044;-76
2024/02/27 09:59:41;;;;;;;20.48;7.65;;;;;;;;;;10429746;28;20095;-75
2024/02/27 10:04:46;;;;;;;26.27;9.52;;;;;;;;;;10431868;28;20633;-75
2024/02/27 10:09:49;;;;;;;19.98;8.52;;;;;;;;;;10422401;28;20128;-75
2024/02/27 10:14:52;;;;;;;23.20;7.80;;;;;;;;;;10424380;28;20283;-74
2024/02/27 10:19:56;;;;;;;21.23;7.20;;;;;;;;;;10425777;28;20142;-75
2024/02/27 10:25:06;;;;;;;22.83;7.72;;;;;;;;;;10425297;28;20047;-75
2024/02/27 10:30:10;;;;;;;20.58;7.53;;;;;;;;;;10420818;28;20048;-75
2024/02/27 10:35:15;;;;;;;18.48;7.15;;;;;;;;;;10425163;28;20433;-74
2024/02/27 10:40:19;;;;;;;17.55;6.40;;;;;;;;;;10432503;28;20041;-75
2024/02/27 10:45:22;;;;;;;18.95;6.43;;;;;;;;;;10427145;28;20530;-75
2024/02/27 10:50:27;;;;;;;15.57;6.80;;;;;;;;;;10425170;28;20055;-75
2024/02/27 10:55:30;;;;;;;16.40;6.60;;;;;;;;;;10431483;28;20068;-74
2024/02/27 11:00:33;;;;;;;20.67;7.50;;;;;;;;;;10431738;28;20049;-75
2024/02/27 11:05:38;;;;;;;17.50;6.45;;;;;;;;;;10427834;28;20080;-73
2024/02/27 11:10:41;;;;;;;20.05;7.70;;;;;;;;;;10430651;28;20586;-77
2024/02/27 11:15:46;;;;;;;22.52;8.35;;;;;;;;;;10430756;28;20130;-75
2024/02/27 11:20:51;;;;;;;18.23;6.88;;;;;;;;;;10435047;28;20064;-74
2024/02/27 11:25:55;;;;;;;17.17;6.85;;;;;;;;;;10430632;28;20037;-76
2024/02/27 11:30:58;;;;;;;;;;;;;;;;;;10433172;28;20102;-75
2024/02/27 11:36:02;;;;;;;15.82;6.30;;;;;;;;;;10430899;28;19997;-75
2024/02/27 11:41:05;;;;;;;21.30;6.97;;;;;;;;;;10424946;28;20410;-75
2024/02/27 11:46:26;;;;;;;23.98;8.20;;;;;;;;;;10437431;28;20091;-74
2024/02/27 11:51:33;;;;;;;19.13;7.97;;;;;;;;;;10430602;28;20568;-76
2024/02/27 11:56:38;;;;;;;20.17;9.00;;;;;;;;;;10423192;28;20486;-76
2024/02/27 12:01:41;;;;;;;21.88;8.50;;;;;;;;;;10426541;28;20076;-76
2024/02/27 12:06:51;;;;;;;18.58;8.85;;;;;;;;;;10427326;28;20099;-76
2024/02/27 12:11:54;;;;;;;21.38;8.85;;;;;;;;;;10427131;28;20127;-75
2024/02/27 12:16:57;;;;;;;18.05;8.32;;;;;;;;;;10422931;28;20033;-76
2024/02/27 12:22:04;;;;;;;16.53;7.83;;;;;;;;;;10426965;28;20128;-76
2024/02/27 12:27:07;;;;;;;17.95;8.25;;;;;;;;;;10423876;28;20124;-75
2024/02/27 12:32:10;;;;;;;15.50;7.33;;;;;;;;;;10427589;28;20037;-76
2024/02/27 12:37:15;;;;;;;19.13;8.73;;;;;;;;;;10432302;28;20458;-74
2024/02/27 12:42:18;;;;;;;19.48;8.00;;;;;;;;;;10432929;28;20122;-74
2024/02/27 12:47:21;;;;;;;18.40;7.43;;;;;;;;;;10424039;28;20060;-74
2024/02/27 12:52:26;;;;;;;15.00;7.25;;;;;;;;;;10424146;28;20040;-75
2024/02/27 12:57:28;;;;;;;16.02;6.70;;;;;;;;;;10422462;28;20044;-75
2024/02/27 13:02:31;;;;;;;19.13;8.00;;;;;;;;;;10430028;28;20049;-76
2024/02/27 13:07:37;;;;;;;16.52;7.65;;;;;;;;;;10427071;28;20496;-75
2024/02/27 13:12:40;;;;;;;16.27;6.85;;;;;;;;;;10421073;28;20478;-75
2024/02/27 13:17:44;;;;;;;16.30;7.07;;;;;;;;;;10425644;28;20501;-75
2024/02/27 13:22:48;;;;;;;16.10;7.50;;;;;;;;;;10426044;28;20924;-75
2024/02/27 13:27:56;;;;;;;21.55;7.30;;;;;;;;;;10422486;28;20030;-75
2024/02/27 13:32:59;;;;;;;16.63;6.78;;;;;;;;;;10418881;28;20048;-76
2024/02/27 13:38:03;;;;;;;17.80;7.88;;;;;;;;;;10425265;28;20143;-75
2024/02/27 13:43:06;;;;;;;;;;;;;;;;;;10426063;28;20095;-75
2024/02/27 13:48:10;;;;;;;17.05;7.25;;;;;;;;;;10426275;28;19928;-75
2024/02/27 13:53:15;;;;;;;16.08;7.25;;;;;;;;;;10432947;28;20041;-73
2024/02/27 13:58:18;;;;;;;14.10;6.68;;;;;;;;;;10428549;28;20037;-75
2024/02/27 14:03:20;;;;;;;14.77;6.70;;;;;;;;;;10426921;28;20061;-75
2024/02/27 14:08:25;;;;;;;15.57;6.67;;;;;;;;;;10424914;28;20072;-75
2024/02/27 14:13:28;;;;;;;18.50;8.23;;;;;;;;;;10427448;28;20061;-75
2024/02/27 14:18:31;;;;;;;16.95;8.07;;;;;;;;;;10436150;28;20140;-75
2024/02/27 14:23:35;;;;;;;19.87;8.90;;;;;;;;;;10432671;28;20069;-76
2024/02/27 14:28:38;;;;;;;20.20;10.75;;;;;;;;;;10429635;28;20123;-75
2024/02/27 14:33:41;;;;;;;17.33;8.50;;;;;;;;;;10436648;28;20391;-76
2024/02/27 14:38:45;;;;;;;23.63;8.53;;;;;;;;;;10437492;28;20049;-75
2024/02/27 14:43:48;;;;;;;;;;;;;;;;;;10440347;28;20315;-74
2024/02/27 14:48:52;;;;;;;20.80;9.10;;;;;;;;;;10428679;28;20019;-75
2024/02/27 14:53:57;;;;;;;20.80;9.10;;;;;;;;;;10433912;28;20107;-75
2024/02/27 14:58:59;;;;;;;;;;;;;;;;;;10433688;28;20445;-74
2024/02/27 15:04:02;;;;;;;17.27;7.00;;;;;;;;;;10434033;28;19948;-75
2024/02/27 15:09:06;;;;;;;19.63;8.15;;;;;;;;;;10431445;28;20057;-76
2024/02/27 15:14:09;;;;;;;;;;;;;;;;;;10438666;28;20045;-75
2024/02/27 15:19:11;;;;;;;20.20;8.85;;;;;;;;;;10427996;28;20307;-76
2024/02/27 15:24:16;;;;;;;24.40;8.85;;;;;;;;;;10431313;28;20112;-75
2024/02/27 15:29:21;;;;;;;22.60;8.45;;;;;;;;;;10431710;28;20388;-75
2024/02/27 15:34:26;;;;;;;16.63;7.90;;;;;;;;;;10431191;28;20045;-75
2024/02/27 15:39:30;;;;;;;22.48;9.30;;;;;;;;;;10433299;28;20034;-74
2024/02/27 15:44:33;;;;;;;16.60;6.85;;;;;;;;;;10432533;28;20067;-74
2024/02/27 15:49:35;;;;;;;20.15;8.32;;;;;;;;;;10433979;28;20057;-75
2024/02/27 15:54:40;;;;;;;16.10;7.65;;;;;;;;;;10422972;28;20075;-75
2024/02/27 15:59:43;;;;;;;;;;;;;;;;;;10438923;28;20045;-75
2024/02/27 16:04:48;;;;;;;20.97;7.83;;;;;;;;;;10437594;28;19960;-76
2024/02/27 16:09:52;;;;;;;20.27;8.60;;;;;;;;;;10426173;28;20470;-75
2024/02/27 16:14:55;;;;;;;;;;;;;;;;;;10437439;28;20041;-74
2024/02/27 16:19:57;;;;;;;23.17;8.45;;;;;;;;;;10426342;28;19924;-74
2024/02/27 16:25:02;;;;;;;21.67;8.45;;;;;;;;;;10430755;28;20204;-74
2024/02/27 16:30:08;;;;;;;26.38;8.50;;;;;;;;;;10434527;28;20065;-75
2024/02/27 16:35:11;;;;;;;20.08;8.80;;;;;;;;;;10432191;28;20118;-74
2024/02/27 16:40:15;;;;;;;23.40;8.25;;;;;;;;;;10427820;28;20074;-74
2024/02/27 16:45:18;;;;;;;25.67;9.20;;;;;;;;;;10433297;28;20056;-75
2024/02/27 16:50:21;;;;;;;21.55;7.82;;;;;;;;;;10424646;28;20113;-74
2024/02/27 16:55:25;;;;;;;20.63;8.15;;;;;;;;;;10430870;28;20486;-74
2024/02/27 17:00:28;;;;;;;23.13;8.75;;;;;;;;;;10425158;28;20123;-75
2024/02/27 17:05:31;;;;;;;24.13;10.00;;;;;;;;;;10432114;28;20041;-76
2024/02/27 17:10:36;;;;;;;24.92;8.40;;;;;;;;;;10430281;28;20037;-75
2024/02/27 17:15:40;;;;;;;20.05;8.38;;;;;;;;;;10421210;28;20985;-76
2024/02/27 17:20:48;;;;;;;22.75;8.55;;;;;;;;;;10430551;28;20053;-76
2024/02/27 17:25:53;;;;;;;22.08;8.10;;;;;;;;;;10420100;28;20069;-73
2024/02/27 17:31:02;;;;;;;23.65;8.65;;;;;;;;;;10428817;28;20053;-74
2024/02/27 17:36:05;;;;;;;26.73;8.40;;;;;;;;;;10429994;28;20106;-74
2024/02/27 17:41:09;;;;;;;26.37;9.27;;;;;;;;;;10431597;28;20037;-74
2024/02/27 17:46:12;;;;;;;22.13;9.07;;;;;;;;;;10431318;28;20108;-75
2024/02/27 17:51:15;;;;;;;21.70;8.68;;;;;;;;;;10429987;28;20056;-76
2024/02/27 17:56:19;;;;;;;20.23;8.18;;;;;;;;;;10424858;28;20045;-74
2024/02/27 18:01:22;;;;;;;25.13;9.57;;;;;;;;;;10430711;28;20263;-75
2024/02/27 18:06:25;;;;;;;23.33;9.35;;;;;;;;;;10424890;28;20483;-75
2024/02/27 18:11:29;;;;;;;25.38;10.27;;;;;;;;;;10430035;28;20163;-75
2024/02/27 18:16:32;;;;;;;30.75;9.32;;;;;;;;;;10422405;28;20038;-74
2024/02/27 18:21:39;;;;;;;27.98;9.80;;;;;;;;;;10421751;28;20193;-74
2024/02/27 18:26:51;;;;;;;29.80;9.60;;;;;;;;;;10417316;28;20054;-75
2024/02/27 18:31:53;;;;;;;21.40;9.23;;;;;;;;;;10426363;28;20060;-75
2024/02/27 18:36:56;;;;;;;24.17;9.55;;;;;;;;;;10421844;28;20252;-76
2024/02/27 18:42:00;;;;;;;23.13;9.52;;;;;;;;;;10434899;28;20548;-75
2024/02/27 18:47:03;;;;;;;23.75;9.57;;;;;;;;;;10435629;28;20041;-76
2024/02/27 18:52:06;;;;;;;28.77;9.87;;;;;;;;;;10453676;28;20056;-76
2024/02/27 18:57:11;;;;;;;26.55;10.45;;;;;;;;;;10437196;28;20037;-74
2024/02/27 19:02:13;;;;;;;30.17;10.52;;;;;;;;;;10443568;28;20047;-75
2024/02/27 19:07:17;;;;;;;27.17;10.25;;;;;;;;;;10441568;28;20095;-74
2024/02/27 19:12:22;;;;;;;33.50;10.23;;;;;;;;;;10441129;28;20554;-75
2024/02/27 19:17:25;;;;;;;29.00;10.80;;;;;;;;;;10437160;28;20041;-75
2024/02/27 19:22:28;;;;;;;27.13;10.13;;;;;;;;;;10444137;28;20114;-75
2024/02/27 19:27:32;;;;;;;23.50;9.98;;;;;;;;;;10436803;28;20765;-75
2024/02/27 19:32:35;;;;;;;;;;;;;;;;;;10434539;28;20107;-74
2024/02/27 19:37:38;;;;;;;28.23;10.55;;;;;;;;;;10438029;28;19935;-76
2024/02/27 19:42:42;;;;;;;25.10;10.20;;;;;;;;;;10431562;28;20049;-74
2024/02/27 19:47:47;;;;;;;27.88;10.60;;;;;;;;;;10428817;28;20418;-75
2024/02/27 19:52:50;;;;;;;24.60;10.38;;;;;;;;;;10429595;28;20063;-76
2024/02/27 19:57:54;;;;;;;24.45;8.63;;;;;;;;;;10433443;28;20068;-75
2024/02/27 20:02:57;;;;;;;22.65;7.43;;;;;;;;;;10425729;28;20053;-74
2024/02/27 20:08:01;;;;;;;25.35;9.75;;;;;;;;;;10434382;28;20471;-75
2024/02/27 20:13:05;;;;;;;25.85;10.52;;;;;;;;;;10431774;28;20050;-73
2024/02/27 20:18:09;;;;;;;15.00;5.82;;;;;;;;;;10428923;28;20045;-75
2024/02/27 20:23:12;;;;;;;25.52;10.35;;;;;;;;;;10434899;28;20406;-76
2024/02/27 20:28:16;;;;;;;25.92;9.32;;;;;;;;;;10428946;28;20526;-74
2024/02/27 20:33:19;;;;;;;20.13;8.43;;;;;;;;;;10427901;28;20045;-76
2024/02/27 20:38:22;;;;;;;23.92;10.02;;;;;;;;;;10428413;28;20040;-75
2024/02/27 20:43:27;;;;;;;8.38;3.53;;;;;;;;;;10425526;28;20040;-74
2024/02/27 20:48:30;;;;;;;28.80;11.40;;;;;;;;;;10436376;28;20048;-73
2024/02/27 20:53:33;;;;;;;30.08;10.95;;;;;;;;;;10426431;28;20042;-75
2024/02/27 20:58:37;;;;;;;24.75;9.98;;;;;;;;;;10428618;28;20588;-74
2024/02/27 21:03:40;;;;;;;28.65;10.48;;;;;;;;;;10431070;28;20182;-75
2024/02/27 21:08:43;;;;;;;24.48;9.95;;;;;;;;;;10425518;28;20120;-76
2024/02/27 21:13:47;;;;;;;20.75;8.00;;;;;;;;;;10433892;28;20041;-75
2024/02/27 21:18:49;;;;;;;21.70;7.65;;;;;;;;;;10429192;28;20069;-76
2024/02/27 21:23:52;;;;;;;26.33;10.18;;;;;;;;;;10429333;28;20555;-76
2024/02/27 21:28:56;;;;;;;24.83;8.93;;;;;;;;;;10427569;28;20175;-75
2024/02/27 21:34:00;;;;;;;21.38;9.65;;;;;;;;;;10427559;28;20200;-74
2024/02/27 21:39:04;;;;;;;25.52;8.65;;;;;;;;;;10435005;28;20055;-74
2024/02/27 21:44:09;;;;;;;21.17;8.63;;;;;;;;;;10430781;28;20522;-75
2024/02/27 21:49:11;;;;;;;;;;;;;;;;;;10433620;28;20037;-75
2024/02/27 21:54:14;;;;;;;21.20;9.10;;;;;;;;;;10427763;28;19928;-74
2024/02/27 21:59:18;;;;;;;26.63;9.45;;;;;;;;;;10431822;28;20034;-76
2024/02/27 22:04:21;;;;;;;;;;;;;;;;;;10434030;28;20041;-75
2024/02/27 22:09:26;;;;;;;25.77;9.70;;;;;;;;;;10424298;28;19921;-76
2024/02/27 22:14:30;;;;;;;22.98;9.55;;;;;;;;;;10423878;28;20192;-75
2024/02/27 22:19:34;;;;;;;23.10;9.48;;;;;;;;;;10429707;28;20146;-74
2024/02/27 22:24:36;;;;;;;24.88;8.45;;;;;;;;;;10430799;28;20133;-74
2024/02/27 22:29:41;;;;;;;15.23;6.15;;;;;;;;;;10420125;28;20042;-75
2024/02/27 22:34:43;;;;;;;;;;;;;;;;;;10422067;28;20103;-75
2024/02/27 22:39:46;;;;;;;23.00;8.85;;;;;;;;;;10435429;28;19957;-75
2024/02/27 22:44:50;;;;;;;21.65;9.70;;;;;;;;;;10437246;28;20045;-74
2024/02/27 22:49:53;;;;;;;22.45;9.98;;;;;;;;;;10435082;28;20044;-76
2024/02/27 22:54:56;;;;;;;22.73;8.95;;;;;;;;;;10428689;28;20072;-76
2024/02/27 23:00:00;;;;;;;20.10;8.40;;;;;;;;;;10431838;28;20068;-76
2024/02/27 23:05:03;;;;;;;28.85;10.40;;;;;;;;;;10430720;28;20492;-78
2024/02/27 23:10:08;;;;;;;26.17;9.80;;;;;;;;;;10430273;28;20045;-76
2024/02/27 23:15:13;;;;;;;25.85;10.38;;;;;;;;;;10428027;28;20041;-76
2024/02/27 23:20:16;;;;;;;23.30;9.80;;;;;;;;;;10426854;28;20048;-76
2024/02/27 23:25:18;;;;;;;25.83;10.68;;;;;;;;;;10433360;28;20069;-75
2024/02/27 23:30:24;;;;;;;26.20;10.65;;;;;;;;;;10434467;28;20509;-75
2024/02/27 23:35:27;;;;;;;28.20;11.73;;;;;;;;;;10443728;28;20068;-77
2024/02/27 23:40:31;;;;;;;26.97;10.23;;;;;;;;;;10435912;28;20451;-77
2024/02/27 23:45:35;;;;;;;32.42;11.18;;;;;;;;;;10433231;28;20067;-74
2024/02/27 23:50:38;;;;;;;31.20;11.63;;;;;;;;;;10430960;28;20072;-76
2024/02/27 23:55:41;;;;;;;27.48;11.25;;;;;;;;;;10435948;28;20118;-75
